Time;durP1;ratioP1;P1;durP2;ratioP2;P2;SDS_P1;SDS_P2;PMS_P1;PMS_P2;Temp;Humidity;BMP_temperature;BMP_pressure;BME280_temperature;BME280_humidity;BME280_pressure;Samples;Min_cycle;Max_cycle;Signal;HPM_P1;HPM_P2
2021/01/24 00:01:56;;;;;;;0.70;0.70;;;20.10;22.60;;;;;;5055118;28;20182;-54
2021/01/24 00:04:22;;;;;;;0.83;0.83;;;20.10;22.60;;;;;;5054952;28;20237;-55
2021/01/24 00:06:48;;;;;;;0.63;0.60;;;20.10;22.60;;;;;;5055488;28;20537;-54
2021/01/24 00:09:14;;;;;;;1.20;0.80;;;20.10;22.60;;;;;;5054583;28;20411;-54
2021/01/24 00:11:39;;;;;;;0.70;0.60;;;20.10;22.60;;;;;;5054784;28;20704;-53
2021/01/24 00:14:05;;;;;;;0.60;0.60;;;20.10;22.60;;;;;;5054986;28;20646;-54
2021/01/24 00:16:31;;;;;;;0.80;0.67;;;20.10;22.60;;;;;;5054712;28;20162;-54
2021/01/24 00:18:56;;;;;;;0.70;0.70;;;20.10;22.60;;;;;;5054813;28;20641;-54
2021/01/24 00:21:22;;;;;;;0.80;0.70;;;20.10;22.60;;;;;;5054882;28;20615;-54
2021/01/24 00:23:48;;;;;;;0.67;0.60;;;20.10;22.60;;;;;;5054353;28;20190;-55
2021/01/24 00:26:13;;;;;;;0.60;0.53;;;20.10;22.60;;;;;;5054867;28;20689;-54
2021/01/24 00:28:39;;;;;;;1.57;1.20;;;20.10;22.60;;;;;;5054768;28;20160;-54
2021/01/24 00:31:05;;;;;;;1.10;0.93;;;20.10;22.60;;;;;;5054604;28;20682;-55
2021/01/24 00:33:30;;;;;;;0.87;0.70;;;20.10;22.60;;;;;;5055170;28;20182;-54
2021/01/24 00:35:56;;;;;;;0.60;0.60;;;20.10;22.60;;;;;;5054608;28;20167;-54
2021/01/24 00:38:21;;;;;;;1.20;0.70;;;20.10;22.60;;;;;;5054146;28;20167;-53
2021/01/24 00:40:47;;;;;;;1.60;0.80;;;20.10;22.60;;;;;;5054041;28;20175;-55
2021/01/24 00:43:13;;;;;;;1.47;1.03;;;20.10;22.60;;;;;;5054416;28;20167;-54
2021/01/24 00:45:38;;;;;;;0.83;0.70;;;20.10;22.60;;;;;;5054597;28;20170;-54
2021/01/24 00:48:04;;;;;;;1.17;0.90;;;20.10;22.60;;;;;;5054291;28;20166;-54
2021/01/24 00:50:30;;;;;;;0.90;0.80;;;20.00;22.50;;;;;;5054496;28;20622;-54
2021/01/24 00:52:56;;;;;;;0.73;0.70;;;20.10;22.60;;;;;;5036133;28;20385;-55
2021/01/24 00:55:22;;;;;;;0.90;0.80;;;20.10;22.60;;;;;;5054271;28;20201;-54
2021/01/24 00:57:47;;;;;;;0.70;0.60;;;20.00;22.60;;;;;;5054150;28;20514;-54
2021/01/24 01:00:13;;;;;;;0.60;0.57;;;20.00;22.60;;;;;;5057256;28;20639;-55
2021/01/24 01:02:39;;;;;;;1.00;0.70;;;20.00;22.60;;;;;;5074009;28;20495;-54
2021/01/24 01:05:06;;;;;;;1.17;0.80;;;20.00;22.60;;;;;;5074057;28;20236;-54
2021/01/24 01:07:32;;;;;;;1.50;1.05;;;20.10;22.60;;;;;;5073539;28;20158;-54
2021/01/24 01:10:00;;;;;;;1.13;0.83;;;20.00;22.60;;;;;;5073811;28;20163;-54
2021/01/24 01:12:26;;;;;;;2.03;0.70;;;20.00;22.50;;;;;;5073926;28;20379;-54
2021/01/24 01:14:52;;;;;;;0.70;0.60;;;20.00;22.50;;;;;;5073894;28;20171;-54
2021/01/24 01:17:17;;;;;;;0.83;0.80;;;20.00;22.60;;;;;;5073808;28;20175;-54
2021/01/24 01:19:43;;;;;;;0.67;0.67;;;20.00;22.60;;;;;;5073933;28;20167;-54
2021/01/24 01:22:09;;;;;;;1.07;0.60;;;20.00;22.60;;;;;;5073529;28;20170;-54
2021/01/24 01:24:34;;;;;;;0.70;0.60;;;20.00;22.60;;;;;;5073878;28;20186;-55
2021/01/24 01:27:03;;;;;;;1.00;0.70;;;20.00;22.60;;;;;;5073623;28;20840;-55
2021/01/24 01:29:29;;;;;;;1.10;0.80;;;20.00;22.60;;;;;;5073690;28;20716;-54
2021/01/24 01:31:54;;;;;;;0.53;0.53;;;20.00;22.60;;;;;;5073538;28;20241;-55
2021/01/24 01:34:20;;;;;;;0.80;0.70;;;20.10;22.60;;;;;;5073587;28;20167;-54
2021/01/24 01:36:47;;;;;;;0.80;0.77;;;20.00;22.60;;;;;;5073667;28;20162;-54
2021/01/24 01:39:13;;;;;;;0.70;0.50;;;20.00;22.60;;;;;;5073044;28;20165;-53
2021/01/24 01:41:39;;;;;;;0.60;0.60;;;20.00;22.60;;;;;;5073793;28;20158;-54
2021/01/24 01:44:05;;;;;;;2.37;0.77;;;20.00;22.60;;;;;;5073207;28;20269;-53
2021/01/24 01:46:30;;;;;;;1.15;1.05;;;20.00;22.60;;;;;;5073378;28;20514;-54
2021/01/24 01:48:56;;;;;;;0.70;0.60;;;20.00;22.60;;;;;;5073442;28;20155;-54
2021/01/24 01:51:22;;;;;;;1.27;0.70;;;20.00;22.60;;;;;;5072706;28;20380;-54
2021/01/24 01:53:49;;;;;;;0.90;0.68;;;20.00;22.60;;;;;;5073039;28;20200;-55
2021/01/24 01:56:15;;;;;;;0.70;0.65;;;20.00;22.60;;;;;;5073344;28;20165;-54
2021/01/24 01:58:41;;;;;;;1.23;1.13;;;20.00;22.60;;;;;;5073479;28;20197;-54
2021/01/24 02:01:17;;;;;;;1.50;1.10;;;20.00;22.60;;;;;;5060909;28;20622;-55
2021/01/24 02:04:05;;;;;;;1.02;0.93;;;20.00;22.60;;;;;;5053378;28;20547;-54
2021/01/24 02:06:37;;;;;;;0.70;0.60;;;20.00;22.60;;;;;;5053392;28;20201;-54
2021/01/24 02:09:28;;;;;;;0.70;0.60;;;20.00;22.60;;;;;;5052826;28;20151;-54
2021/01/24 02:12:10;;;;;;;0.50;0.50;;;20.00;22.60;;;;;;5025950;28;20223;-54
2021/01/24 02:15:01;;;;;;;0.60;0.50;;;20.00;22.60;;;;;;5033659;28;20190;-54
2021/01/24 02:17:29;;;;;;;1.13;1.00;;;20.00;22.60;;;;;;5033549;28;20163;-55
2021/01/24 02:20:19;;;;;;;0.77;0.70;;;20.00;22.60;;;;;;5033285;28;20172;-55
2021/01/24 02:22:47;;;;;;;0.60;0.55;;;20.00;22.60;;;;;;5032657;28;20206;-54
2021/01/24 02:25:12;;;;;;;1.10;0.90;;;20.00;22.60;;;;;;5031940;28;20678;-55
2021/01/24 02:27:55;;;;;;;0.93;0.87;;;20.00;22.60;;;;;;5033170;28;20157;-55
2021/01/24 02:30:25;;;;;;;0.80;0.60;;;20.00;22.60;;;;;;5015554;28;20725;-54
2021/01/24 02:33:02;;;;;;;1.58;0.70;;;20.00;22.60;;;;;;5033044;28;20152;-55
2021/01/24 02:35:31;;;;;;;1.20;0.80;;;20.00;22.60;;;;;;5033247;28;20231;-55
2021/01/24 02:37:59;;;;;;;1.65;0.70;;;20.00;22.60;;;;;;5032481;28;20160;-54
2021/01/24 02:40:26;;;;;;;0.65;0.60;;;20.00;22.60;;;;;;5033190;28;20547;-55
2021/01/24 02:42:53;;;;;;;1.50;0.68;;;20.00;22.60;;;;;;5033042;28;20163;-55
2021/01/24 02:45:21;;;;;;;1.05;0.88;;;20.00;22.60;;;;;;5033113;28;20214;-55
2021/01/24 02:47:48;;;;;;;0.73;0.60;;;20.00;22.60;;;;;;5033060;28;20168;-55
2021/01/24 02:50:14;;;;;;;0.95;0.80;;;19.90;22.50;;;;;;5032937;28;20160;-55
2021/01/24 02:52:41;;;;;;;1.08;0.80;;;20.00;22.60;;;;;;5032558;28;20148;-54
2021/01/24 02:55:08;;;;;;;0.75;0.73;;;19.90;22.50;;;;;;5033087;28;20199;-54
2021/01/24 02:57:33;;;;;;;0.88;0.77;;;19.90;22.50;;;;;;5032942;28;20514;-54
2021/01/24 02:59:59;;;;;;;0.80;0.70;;;19.90;22.50;;;;;;5032893;28;20642;-55
2021/01/24 03:02:25;;;;;;;0.70;0.60;;;19.90;22.50;;;;;;5033734;28;20410;-54
2021/01/24 03:04:51;;;;;;;0.97;0.70;;;19.90;22.50;;;;;;5036393;28;20444;-54
2021/01/24 03:07:17;;;;;;;0.90;0.67;;;19.90;22.50;;;;;;5035745;28;20631;-55
2021/01/24 03:09:43;;;;;;;0.70;0.60;;;19.90;22.50;;;;;;5036852;28;20159;-54
2021/01/24 03:12:10;;;;;;;0.75;0.70;;;19.90;22.60;;;;;;5038436;28;20167;-54
2021/01/24 03:14:37;;;;;;;0.95;0.73;;;19.90;22.50;;;;;;5056235;28;20162;-54
2021/01/24 03:17:04;;;;;;;1.00;0.60;;;19.90;22.60;;;;;;5056252;28;20174;-54
2021/01/24 03:19:33;;;;;;;0.70;0.63;;;19.90;22.60;;;;;;5055911;28;20167;-54
2021/01/24 03:22:01;;;;;;;0.90;0.70;;;19.90;22.60;;;;;;5056016;28;20254;-54
2021/01/24 03:24:31;;;;;;;0.88;0.63;;;19.90;22.60;;;;;;5055456;28;20214;-55
2021/01/24 03:27:00;;;;;;;0.70;0.60;;;19.90;22.60;;;;;;5056114;28;20160;-54
2021/01/24 03:29:26;;;;;;;0.80;0.80;;;19.90;22.60;;;;;;5056041;28;20542;-54
2021/01/24 03:31:51;;;;;;;1.85;0.75;;;19.90;22.60;;;;;;5055969;28;20159;-55
2021/01/24 03:34:22;;;;;;;0.70;0.60;;;19.90;22.60;;;;;;5055794;28;20171;-55
2021/01/24 03:36:49;;;;;;;1.20;0.60;;;19.90;22.70;;;;;;5055876;28;20637;-55
2021/01/24 03:39:15;;;;;;;0.70;0.63;;;19.90;22.70;;;;;;5055208;28;20171;-54
2021/01/24 03:41:41;;;;;;;1.70;0.82;;;19.90;22.70;;;;;;5055727;28;20626;-55
2021/01/24 03:44:07;;;;;;;0.70;0.70;;;19.90;22.70;;;;;;5055577;28;20191;-54
2021/01/24 03:46:34;;;;;;;0.77;0.73;;;19.90;22.70;;;;;;5055508;28;20423;-54
2021/01/24 03:49:00;;;;;;;0.63;0.63;;;19.90;23.30;;;;;;5055405;28;20151;-53
2021/01/24 03:51:26;;;;;;;0.70;0.60;;;19.90;22.80;;;;;;5055634;28;20147;-54
2021/01/24 03:53:52;;;;;;;1.10;0.65;;;19.90;22.70;;;;;;5054827;28;20163;-54
2021/01/24 03:56:18;;;;;;;0.90;0.70;;;19.90;22.70;;;;;;5047075;28;20637;-54
2021/01/24 03:58:43;;;;;;;0.90;0.50;;;19.90;22.70;;;;;;5054130;28;20179;-54
2021/01/24 04:01:09;;;;;;;0.70;0.67;;;19.90;22.70;;;;;;5037322;28;20193;-55
2021/01/24 04:03:35;;;;;;;0.87;0.80;;;19.90;22.70;;;;;;5055199;28;20187;-55
2021/01/24 04:06:00;;;;;;;0.80;0.70;;;19.90;22.80;;;;;;5055015;28;20552;-54
2021/01/24 04:08:26;;;;;;;0.97;0.60;;;19.90;22.70;;;;;;5054879;28;20206;-54
2021/01/24 04:10:51;;;;;;;1.00;0.70;;;19.90;22.70;;;;;;5055105;28;20215;-54
2021/01/24 04:13:17;;;;;;;0.67;0.60;;;19.90;22.70;;;;;;5055273;28;20205;-54
2021/01/24 04:15:43;;;;;;;0.80;0.80;;;19.90;22.70;;;;;;5054397;28;20159;-54
2021/01/24 04:18:08;;;;;;;0.77;0.67;;;19.90;22.70;;;;;;5054937;28;20246;-54
2021/01/24 04:20:34;;;;;;;0.97;0.70;;;19.90;22.80;;;;;;5055135;28;20185;-54
2021/01/24 04:23:00;;;;;;;1.03;0.80;;;19.90;22.80;;;;;;5054371;28;20656;-54
2021/01/24 04:25:25;;;;;;;2.90;0.63;;;19.90;22.80;;;;;;5054803;28;20708;-55
2021/01/24 04:27:51;;;;;;;0.90;0.70;;;19.90;22.70;;;;;;5054848;28;20206;-54
2021/01/24 04:30:17;;;;;;;0.50;0.40;;;19.90;22.80;;;;;;5054878;28;20623;-54
2021/01/24 04:32:43;;;;;;;0.68;0.50;;;19.90;22.80;;;;;;5054459;28;20163;-55
2021/01/24 04:35:09;;;;;;;1.23;0.87;;;19.90;22.70;;;;;;5054802;28;20634;-54
2021/01/24 04:37:35;;;;;;;1.02;0.70;;;19.90;22.70;;;;;;5054041;28;20159;-55
2021/01/24 04:40:01;;;;;;;0.60;0.60;;;19.90;22.70;;;;;;5054630;28;20178;-54
2021/01/24 04:42:27;;;;;;;0.60;0.50;;;19.90;22.70;;;;;;5054548;28;20281;-54
2021/01/24 04:44:54;;;;;;;0.53;0.50;;;19.90;22.70;;;;;;5054522;28;20919;-55
2021/01/24 04:47:21;;;;;;;0.65;0.55;;;19.90;22.70;;;;;;5054427;28;20835;-55
2021/01/24 04:49:47;;;;;;;0.60;0.50;;;19.90;22.70;;;;;;5054556;28;20162;-54
2021/01/24 04:52:13;;;;;;;1.40;0.80;;;19.90;22.70;;;;;;5053813;28;20627;-54
2021/01/24 04:54:41;;;;;;;1.30;0.60;;;19.90;22.70;;;;;;5036700;28;20163;-55
2021/01/24 04:57:09;;;;;;;1.15;0.70;;;19.90;22.70;;;;;;5054092;28;20163;-55
2021/01/24 04:59:35;;;;;;;0.60;0.60;;;19.90;22.70;;;;;;5054447;28;20249;-54
2021/01/24 05:02:01;;;;;;;0.80;0.80;;;19.90;22.70;;;;;;5036108;28;20638;-54
2021/01/24 05:04:30;;;;;;;0.68;0.50;;;19.90;22.60;;;;;;5036294;28;20182;-54
2021/01/24 05:06:55;;;;;;;1.00;0.65;;;19.90;22.60;;;;;;5054102;28;20205;-55
2021/01/24 05:09:21;;;;;;;0.70;0.70;;;19.90;22.60;;;;;;5053550;28;20163;-54
2021/01/24 05:11:51;;;;;;;0.83;0.70;;;19.90;22.60;;;;;;5018526;28;20223;-54
2021/01/24 05:14:19;;;;;;;0.50;0.50;;;19.90;22.60;;;;;;5033944;28;20449;-55
2021/01/24 05:16:47;;;;;;;0.60;0.60;;;19.90;22.60;;;;;;5033993;28;20496;-54
2021/01/24 05:19:14;;;;;;;0.88;0.77;;;19.90;22.60;;;;;;5033839;28;20164;-54
2021/01/24 05:21:40;;;;;;;0.63;0.63;;;19.90;23.20;;;;;;5033978;28;20152;-54
2021/01/24 05:24:11;;;;;;;0.83;0.60;;;19.90;22.60;;;;;;5033266;28;20674;-54
2021/01/24 05:26:48;;;;;;;0.80;0.70;;;19.90;22.60;;;;;;5033916;28;20494;-55
2021/01/24 05:29:22;;;;;;;1.15;0.90;;;19.90;22.60;;;;;;5033767;28;20152;-54
2021/01/24 05:31:48;;;;;;;1.02;0.85;;;19.90;22.60;;;;;;5033718;28;20152;-54
2021/01/24 05:34:17;;;;;;;0.60;0.60;;;19.90;22.60;;;;;;5033889;28;20579;-54
2021/01/24 05:36:46;;;;;;;1.10;0.60;;;19.90;22.60;;;;;;5033700;28;20160;-53
2021/01/24 05:39:13;;;;;;;0.50;0.40;;;19.90;22.60;;;;;;5033113;28;20609;-54
2021/01/24 05:41:38;;;;;;;0.75;0.50;;;19.90;22.60;;;;;;5033544;28;20198;-55
2021/01/24 05:44:12;;;;;;;0.87;0.77;;;19.90;22.60;;;;;;5015518;28;20227;-54
2021/01/24 05:46:37;;;;;;;1.20;0.80;;;19.90;22.60;;;;;;5033764;28;20164;-54
2021/01/24 05:49:03;;;;;;;1.23;0.70;;;19.90;22.60;;;;;;5033362;28;20167;-54
2021/01/24 05:51:35;;;;;;;0.90;0.70;;;19.90;22.60;;;;;;5033643;28;20164;-54
2021/01/24 05:54:00;;;;;;;0.98;0.70;;;19.90;22.60;;;;;;5033017;28;20384;-54
2021/01/24 05:56:26;;;;;;;0.93;0.87;;;19.90;22.60;;;;;;5033492;28;20160;-54
2021/01/24 05:59:03;;;;;;;0.90;0.70;;;19.90;23.20;;;;;;5033490;28;20618;-53
2021/01/24 06:01:29;;;;;;;0.80;0.77;;;19.90;22.60;;;;;;5033374;28;20179;-54
2021/01/24 06:04:04;;;;;;;0.93;0.73;;;19.90;22.60;;;;;;5033259;28;20195;-54
2021/01/24 06:06:30;;;;;;;0.70;0.70;;;19.90;22.60;;;;;;5033265;28;20572;-53
2021/01/24 06:08:57;;;;;;;0.67;0.60;;;19.90;22.60;;;;;;5032865;28;20160;-54
2021/01/24 06:11:24;;;;;;;0.80;0.77;;;19.90;22.60;;;;;;5047259;28;20297;-54
2021/01/24 06:13:53;;;;;;;0.70;0.52;;;19.90;22.60;;;;;;5053241;28;20614;-54
2021/01/24 06:16:29;;;;;;;0.70;0.60;;;19.90;22.60;;;;;;5053300;28;20206;-54
2021/01/24 06:18:56;;;;;;;0.90;0.80;;;19.90;22.60;;;;;;5053013;28;20150;-54
2021/01/24 06:21:54;;;;;;;0.77;0.70;;;19.90;22.60;;;;;;5053261;28;20213;-54
2021/01/24 06:24:22;;;;;;;0.70;0.70;;;19.90;22.60;;;;;;5040770;28;20253;-55
2021/01/24 06:26:53;;;;;;;0.75;0.75;;;19.90;22.60;;;;;;5053206;28;20184;-54
2021/01/24 06:29:20;;;;;;;0.70;0.68;;;19.90;22.50;;;;;;5053058;28;20174;-55
2021/01/24 06:31:50;;;;;;;0.88;0.80;;;19.90;22.50;;;;;;5053421;28;20159;-54
2021/01/24 06:34:16;;;;;;;0.70;0.70;;;19.90;22.50;;;;;;5052921;28;20615;-54
2021/01/24 06:37:07;;;;;;;0.80;0.60;;;19.90;23.10;;;;;;5053095;28;20181;-54
2021/01/24 06:39:53;;;;;;;0.70;0.50;;;19.90;22.50;;;;;;5056655;28;20384;-54
2021/01/24 06:42:45;;;;;;;0.60;0.60;;;20.00;22.60;;;;;;5056546;28;20182;-54
2021/01/24 06:45:26;;;;;;;0.70;0.60;;;20.00;22.60;;;;;;5056666;28;20230;-54
2021/01/24 06:47:58;;;;;;;0.70;0.60;;;20.00;22.60;;;;;;5056596;28;20147;-55
2021/01/24 06:50:43;;;;;;;0.90;0.80;;;20.00;22.60;;;;;;5056777;28;20629;-53
2021/01/24 06:53:18;;;;;;;0.60;0.50;;;20.00;22.60;;;;;;5056241;28;20151;-55
2021/01/24 06:55:59;;;;;;;0.70;0.68;;;19.90;22.50;;;;;;5056676;28;20182;-54
2021/01/24 06:58:26;;;;;;;0.60;0.50;;;19.90;22.50;;;;;;5056283;28;20159;-55
2021/01/24 07:01:10;;;;;;;0.88;0.50;;;19.90;22.50;;;;;;5056107;28;20220;-53
2021/01/24 07:03:36;;;;;;;0.70;0.60;;;19.90;22.50;;;;;;5056407;28;20617;-54
2021/01/24 07:06:32;;;;;;;0.50;0.50;;;19.90;22.50;;;;;;5056207;28;20163;-54
2021/01/24 07:08:58;;;;;;;0.60;0.60;;;20.00;22.50;;;;;;5055814;28;20151;-54
2021/01/24 07:11:50;;;;;;;0.70;0.65;;;20.00;22.50;;;;;;5056075;28;20211;-55
2021/01/24 07:14:34;;;;;;;1.40;0.60;;;20.00;22.50;;;;;;5056082;28;20177;-55
2021/01/24 07:17:05;;;;;;;0.70;0.60;;;20.00;22.50;;;;;;5056170;28;20578;-55
2021/01/24 07:19:33;;;;;;;0.60;0.60;;;20.00;22.50;;;;;;5056109;28;20242;-53
2021/01/24 07:21:59;;;;;;;1.45;0.50;;;20.00;22.50;;;;;;5056143;28;20598;-54
2021/01/24 07:24:25;;;;;;;0.80;0.60;;;20.00;22.50;;;;;;5055399;28;20639;-55
2021/01/24 07:26:54;;;;;;;0.70;0.70;;;20.00;22.50;;;;;;5055919;28;20154;-54
2021/01/24 07:29:23;;;;;;;0.73;0.65;;;20.00;22.50;;;;;;5056005;28;20162;-54
2021/01/24 07:31:50;;;;;;;0.90;0.80;;;20.00;22.50;;;;;;5056000;28;20163;-54
2021/01/24 07:34:21;;;;;;;0.63;0.50;;;20.00;22.50;;;;;;5055499;28;20213;-54
2021/01/24 07:36:47;;;;;;;1.20;0.63;;;20.00;22.50;;;;;;5055882;28;20182;-54
2021/01/24 07:39:14;;;;;;;1.00;0.70;;;20.00;22.50;;;;;;5055081;28;20668;-54
2021/01/24 07:41:39;;;;;;;0.75;0.60;;;20.00;22.50;;;;;;5055552;28;20171;-54
2021/01/24 07:44:06;;;;;;;0.70;0.60;;;20.00;22.50;;;;;;5055382;28;20191;-54
2021/01/24 07:46:31;;;;;;;0.73;0.73;;;20.00;22.50;;;;;;5055727;28;20172;-54
2021/01/24 07:48:57;;;;;;;1.10;0.50;;;20.00;22.40;;;;;;5054212;28;20155;-54
2021/01/24 07:51:23;;;;;;;0.80;0.60;;;20.00;22.40;;;;;;5037685;28;20661;-54
2021/01/24 07:53:50;;;;;;;1.23;0.77;;;20.00;22.40;;;;;;5055016;28;20509;-54
2021/01/24 07:56:15;;;;;;;0.75;0.65;;;20.00;22.30;;;;;;5055279;28;20163;-53
2021/01/24 07:58:41;;;;;;;0.60;0.60;;;20.00;22.40;;;;;;5055271;28;20515;-54
2021/01/24 08:01:08;;;;;;;0.70;0.70;;;20.00;22.30;;;;;;5055044;28;20194;-54
2021/01/24 08:03:34;;;;;;;0.93;0.82;;;20.00;22.30;;;;;;5055302;28;20173;-54
2021/01/24 08:06:11;;;;;;;0.95;0.60;;;20.00;22.30;;;;;;5055157;28;20163;-54
2021/01/24 08:08:44;;;;;;;0.98;0.50;;;20.00;22.30;;;;;;5054912;28;20266;-54
2021/01/24 08:11:11;;;;;;;0.60;0.60;;;20.00;22.30;;;;;;5054933;28;20218;-54
2021/01/24 08:13:38;;;;;;;0.73;0.68;;;20.10;22.30;;;;;;5054713;28;20150;-54
2021/01/24 08:16:07;;;;;;;0.70;0.70;;;20.10;22.30;;;;;;5054955;28;20159;-54
2021/01/24 08:18:34;;;;;;;0.80;0.80;;;20.10;22.30;;;;;;5055000;28;20194;-53
2021/01/24 08:21:01;;;;;;;0.60;0.50;;;20.10;22.30;;;;;;5054884;28;20155;-54
2021/01/24 08:23:28;;;;;;;0.73;0.70;;;20.10;22.30;;;;;;5054239;28;20159;-53
2021/01/24 08:25:57;;;;;;;1.02;0.55;;;20.10;22.30;;;;;;5054684;28;20155;-54
2021/01/24 08:28:24;;;;;;;0.70;0.68;;;20.10;22.30;;;;;;5054774;28;20238;-53
2021/01/24 08:30:50;;;;;;;0.90;0.70;;;20.10;22.30;;;;;;5054851;28;20178;-54
2021/01/24 08:33:18;;;;;;;0.80;0.70;;;20.10;22.30;;;;;;5054885;28;20595;-54
2021/01/24 08:35:44;;;;;;;0.80;0.70;;;20.10;22.30;;;;;;5054403;28;20383;-54
2021/01/24 08:38:12;;;;;;;1.15;0.80;;;20.20;22.80;;;;;;5053758;28;20610;-54
2021/01/24 08:40:38;;;;;;;0.60;0.50;;;20.20;22.30;;;;;;5054640;28;20187;-54
2021/01/24 08:43:05;;;;;;;0.75;0.55;;;20.20;22.20;;;;;;5054361;28;20214;-54
2021/01/24 08:45:31;;;;;;;0.70;0.50;;;20.20;22.20;;;;;;5054427;28;20734;-54
2021/01/24 08:48:03;;;;;;;1.10;0.63;;;20.20;22.20;;;;;;5054483;28;20169;-55
2021/01/24 08:50:33;;;;;;;0.80;0.68;;;20.20;22.20;;;;;;5054430;28;20170;-54
2021/01/24 08:53:01;;;;;;;0.80;0.80;;;20.20;22.70;;;;;;5053704;28;20147;-54
2021/01/24 08:55:27;;;;;;;0.70;0.70;;;20.30;22.10;;;;;;5054489;28;20163;-54
2021/01/24 08:57:53;;;;;;;0.77;0.63;;;20.30;22.00;;;;;;5053997;28;20250;-54
2021/01/24 09:00:20;;;;;;;0.95;0.80;;;20.30;21.90;;;;;;5053720;28;20182;-53
2021/01/24 09:02:46;;;;;;;0.60;0.60;;;20.40;21.90;;;;;;5053332;28;20183;-53
2021/01/24 09:05:31;;;;;;;1.05;0.80;;;20.40;21.90;;;;;;5053916;28;20183;-53
2021/01/24 09:07:57;;;;;;;0.70;0.60;;;20.40;21.90;;;;;;5053352;28;20163;-53
2021/01/24 09:10:24;;;;;;;0.73;0.73;;;20.40;21.80;;;;;;5053875;28;20227;-53
2021/01/24 09:12:52;;;;;;;0.50;0.40;;;20.40;21.80;;;;;;5053980;28;20436;-54
2021/01/24 09:15:20;;;;;;;0.60;0.52;;;20.40;21.80;;;;;;5053949;28;20155;-54
2021/01/24 09:17:51;;;;;;;1.77;0.70;;;20.40;21.70;;;;;;5053905;28;20170;-54
2021/01/24 09:20:17;;;;;;;0.90;0.80;;;20.50;21.80;;;;;;5053881;28;20158;-53
2021/01/24 09:22:44;;;;;;;0.60;0.60;;;20.50;21.80;;;;;;5053196;28;20629;-54
2021/01/24 09:25:10;;;;;;;1.15;0.80;;;20.50;21.70;;;;;;5053672;28;20191;-54
2021/01/24 09:27:36;;;;;;;1.23;0.60;;;20.50;21.70;;;;;;5053764;28;20155;-54
2021/01/24 09:30:05;;;;;;;0.57;0.57;;;20.50;21.70;;;;;;5053683;28;20177;-54
2021/01/24 09:32:31;;;;;;;0.88;0.70;;;20.50;21.60;;;;;;5053684;28;20151;-54
2021/01/24 09:34:56;;;;;;;0.80;0.67;;;20.60;21.70;;;;;;5053621;28;20499;-55
2021/01/24 09:37:22;;;;;;;1.10;1.00;;;20.60;21.60;;;;;;5053067;28;20168;-54
2021/01/24 09:39:47;;;;;;;0.80;0.57;;;20.60;21.60;;;;;;5053620;28;20155;-53
2021/01/24 09:42:14;;;;;;;1.23;0.77;;;20.60;21.60;;;;;;5053417;28;20177;-54
2021/01/24 09:44:39;;;;;;;0.70;0.70;;;20.60;21.60;;;;;;5053553;28;20217;-55
2021/01/24 09:47:05;;;;;;;0.60;0.50;;;20.60;21.60;;;;;;5053489;28;20179;-53
2021/01/24 09:49:34;;;;;;;0.70;0.60;;;20.60;21.50;;;;;;5053382;28;20503;-54
2021/01/24 09:51:59;;;;;;;0.80;0.50;;;20.60;21.50;;;;;;5053419;28;20198;-53
2021/01/24 09:54:26;;;;;;;0.60;0.60;;;20.60;21.40;;;;;;5052982;28;20199;-53
2021/01/24 09:56:52;;;;;;;0.60;0.60;;;20.70;21.50;;;;;;5053367;28;20209;-54
2021/01/24 09:59:17;;;;;;;0.80;0.70;;;20.70;21.40;;;;;;5053357;28;20171;-54
2021/01/24 10:01:44;;;;;;;1.10;0.63;;;20.70;21.30;;;;;;5053463;28;20183;-54
2021/01/24 10:04:10;;;;;;;0.70;0.60;;;20.70;21.30;;;;;;5053204;28;20190;-54
2021/01/24 10:06:36;;;;;;;0.60;0.50;;;20.80;21.30;;;;;;5053232;28;20159;-53
2021/01/24 10:09:02;;;;;;;0.60;0.50;;;20.80;21.20;;;;;;5052971;28;20454;-55
2021/01/24 10:11:28;;;;;;;0.95;0.95;;;20.90;21.20;;;;;;5053192;28;20218;-55
2021/01/24 10:13:54;;;;;;;0.60;0.60;;;20.90;21.10;;;;;;5056556;28;20166;-54
2021/01/24 10:16:20;;;;;;;0.70;0.70;;;20.90;21.00;;;;;;5057338;28;20913;-53
2021/01/24 10:18:45;;;;;;;0.73;0.70;;;20.90;20.90;;;;;;5057233;28;20171;-54
2021/01/24 10:21:11;;;;;;;0.80;0.77;;;20.90;20.90;;;;;;5057091;28;20495;-54
2021/01/24 10:23:39;;;;;;;0.70;0.70;;;21.00;20.90;;;;;;5056600;28;20517;-53
2021/01/24 10:26:04;;;;;;;0.80;0.50;;;21.00;20.90;;;;;;5057391;28;20156;-54
2021/01/24 10:28:34;;;;;;;0.83;0.67;;;21.00;21.00;;;;;;5057020;28;20173;-54
2021/01/24 10:31:00;;;;;;;0.70;0.70;;;21.00;20.90;;;;;;5056898;28;20383;-53
2021/01/24 10:33:25;;;;;;;0.60;0.57;;;21.00;20.90;;;;;;5055607;28;20171;-49
2021/01/24 10:35:51;;;;;;;1.03;0.70;;;21.10;20.70;;;;;;5056875;28;20164;-49
2021/01/24 10:38:18;;;;;;;1.47;1.00;;;21.10;20.80;;;;;;5056369;28;20199;-51
2021/01/24 10:40:44;;;;;;;7.18;1.00;;;21.10;20.60;;;;;;5056973;28;20159;-50
2021/01/24 10:43:11;;;;;;;6.60;1.00;;;21.10;20.70;;;;;;5056891;28;20160;-51
2021/01/24 10:45:38;;;;;;;1.75;0.80;;;;;;;;;;5056706;28;20198;-51
2021/01/24 10:48:05;;;;;;;1.75;1.40;;;21.20;20.00;;;;;;5056732;28;20170;-51
2021/01/24 10:50:36;;;;;;;0.90;0.77;;;21.20;20.40;;;;;;5038602;28;20213;-50
2021/01/24 10:53:03;;;;;;;1.00;0.90;;;21.20;20.30;;;;;;5056117;28;20156;-51
2021/01/24 10:55:32;;;;;;;2.05;0.90;;;21.20;20.20;;;;;;5056913;28;20174;-50
2021/01/24 10:57:58;;;;;;;2.75;1.50;;;21.20;20.10;;;;;;5038450;28;20504;-50
2021/01/24 11:00:24;;;;;;;1.50;1.00;;;21.20;20.00;;;;;;5056323;28;20185;-51
2021/01/24 11:02:50;;;;;;;1.80;1.10;;;21.30;20.00;;;;;;5055021;28;20190;-50
2021/01/24 11:05:16;;;;;;;1.93;0.87;;;21.30;20.00;;;;;;5056517;28;20453;-51
2021/01/24 11:07:41;;;;;;;1.20;1.10;;;21.30;20.00;;;;;;5055817;28;20852;-50
2021/01/24 11:10:08;;;;;;;2.10;0.97;;;21.30;20.00;;;;;;5056094;28;20215;-50
2021/01/24 11:12:35;;;;;;;3.60;1.00;;;21.30;19.90;;;;;;5055987;28;20182;-51
2021/01/24 11:15:00;;;;;;;0.70;0.70;;;21.30;19.90;;;;;;5056238;28;20163;-51
2021/01/24 11:17:26;;;;;;;4.67;1.33;;;21.30;19.80;;;;;;5056123;28;20171;-51
2021/01/24 11:19:52;;;;;;;1.70;0.80;;;21.40;19.90;;;;;;5055969;28;20672;-50
2021/01/24 11:22:19;;;;;;;1.58;0.70;;;21.40;19.90;;;;;;5055404;28;20381;-50
2021/01/24 11:24:45;;;;;;;2.05;0.88;;;21.40;19.80;;;;;;5055653;28;20185;-50
2021/01/24 11:27:11;;;;;;;1.38;1.25;;;21.40;19.80;;;;;;5055747;28;20167;-50
2021/01/24 11:29:38;;;;;;;1.23;1.15;;;21.50;19.70;;;;;;5055899;28;20161;-51
2021/01/24 11:32:04;;;;;;;1.40;0.98;;;21.50;19.70;;;;;;5055575;28;20155;-50
2021/01/24 11:34:29;;;;;;;0.70;0.60;;;21.50;19.60;;;;;;5055664;28;20220;-51
2021/01/24 11:36:55;;;;;;;1.50;0.90;;;21.60;19.70;;;;;;5055836;28;20242;-51
2021/01/24 11:39:21;;;;;;;1.37;0.90;;;21.60;19.60;;;;;;5055346;28;20635;-51
2021/01/24 11:41:47;;;;;;;1.35;1.25;;;21.60;19.50;;;;;;5055852;28;20163;-51
2021/01/24 11:44:13;;;;;;;1.00;0.85;;;21.70;19.50;;;;;;5055838;28;20191;-51
2021/01/24 11:46:39;;;;;;;1.93;1.27;;;21.70;19.40;;;;;;5055585;28;20629;-51
2021/01/24 11:49:05;;;;;;;1.30;1.02;;;21.80;19.40;;;;;;5055385;28;20158;-50
2021/01/24 11:51:30;;;;;;;1.90;0.90;;;21.70;19.30;;;;;;5055382;28;20155;-51
2021/01/24 11:53:56;;;;;;;1.87;1.07;;;21.80;19.30;;;;;;5054994;28;20167;-51
2021/01/24 11:56:22;;;;;;;0.90;0.80;;;21.80;19.30;;;;;;5055298;28;20206;-50
2021/01/24 11:58:48;;;;;;;1.80;1.13;;;21.80;19.20;;;;;;5037215;28;20292;-51
2021/01/24 12:01:14;;;;;;;1.52;0.80;;;21.80;18.60;;;;;;5055195;28;20186;-51
2021/01/24 12:03:40;;;;;;;1.20;0.90;;;21.90;19.10;;;;;;5054943;28;20159;-51
2021/01/24 12:06:06;;;;;;;1.10;1.00;;;21.90;19.10;;;;;;5055120;28;20229;-51
2021/01/24 12:08:32;;;;;;;1.07;0.90;;;21.90;19.00;;;;;;5054660;28;20152;-50
2021/01/24 12:10:57;;;;;;;3.00;1.10;;;21.90;19.00;;;;;;5054907;28;20222;-51
2021/01/24 12:13:23;;;;;;;1.00;0.80;;;21.90;19.00;;;;;;5055003;28;20170;-50
2021/01/24 12:15:49;;;;;;;0.70;0.60;;;21.90;19.60;;;;;;5054945;28;20167;-50
2021/01/24 12:18:15;;;;;;;1.10;0.70;;;21.90;19.00;;;;;;5054915;28;20209;-51
2021/01/24 12:20:40;;;;;;;0.90;0.80;;;21.90;18.90;;;;;;5053732;28;20257;-51
2021/01/24 12:23:06;;;;;;;2.10;1.10;;;21.90;19.00;;;;;;5036724;28;20420;-52
2021/01/24 12:25:32;;;;;;;1.30;1.00;;;21.90;18.90;;;;;;5054682;28;20198;-50
2021/01/24 12:27:57;;;;;;;1.30;0.90;;;21.90;18.90;;;;;;5055163;28;20167;-50
2021/01/24 12:30:23;;;;;;;1.53;0.83;;;21.90;18.80;;;;;;5054859;28;20518;-51
2021/01/24 12:32:49;;;;;;;0.80;0.73;;;21.90;18.90;;;;;;5054458;28;20234;-51
2021/01/24 12:35:16;;;;;;;1.00;0.90;;;21.90;18.80;;;;;;5053871;28;20622;-51
2021/01/24 12:37:42;;;;;;;1.10;1.00;;;21.90;18.90;;;;;;5053926;28;20242;-50
2021/01/24 12:40:09;;;;;;;1.17;0.80;;;21.90;18.90;;;;;;5054646;28;20213;-51
2021/01/24 12:42:34;;;;;;;1.40;0.75;;;21.90;18.90;;;;;;5054495;28;20160;-50
2021/01/24 12:45:05;;;;;;;0.90;0.90;;;21.90;18.90;;;;;;5054415;28;20197;-50
2021/01/24 12:47:30;;;;;;;1.00;0.70;;;21.90;19.00;;;;;;5054338;28;20159;-50
2021/01/24 12:49:56;;;;;;;1.00;0.90;;;21.90;18.90;;;;;;5053226;28;20259;-50
2021/01/24 12:52:21;;;;;;;1.97;0.80;;;21.90;19.00;;;;;;5053867;28;20160;-50